createdAt,value
2023-01-11T00:01:41.563Z,7.37
2023-01-11T00:04:09.446Z,7.23
2023-01-11T00:06:37.738Z,10.00
2023-01-11T00:09:05.577Z,6.33
2023-01-11T00:11:34.850Z,4.23
2023-01-11T00:14:02.684Z,6.63
2023-01-11T00:16:31.028Z,6.33
2023-01-11T00:18:58.948Z,7.37
2023-01-11T00:21:27.195Z,2.90
2023-01-11T00:23:55.157Z,9.33
2023-01-11T00:26:23.255Z,3.63
2023-01-11T00:28:53.397Z,11.90
2023-01-11T00:31:21.732Z,9.77
2023-01-11T00:33:49.739Z,9.03
2023-01-11T00:36:18.005Z,6.80
2023-01-11T00:38:47.027Z,5.10
2023-01-11T00:41:34.789Z,3.70
2023-01-11T00:44:22.280Z,5.40
2023-01-11T00:47:07.478Z,8.33
2023-01-11T00:49:36.114Z,4.60
2023-01-11T00:52:08.693Z,4.77
2023-01-11T00:54:36.753Z,6.50
2023-01-11T00:57:06.413Z,5.60
2023-01-11T00:59:35.560Z,5.70
2023-01-11T01:02:03.548Z,3.07
2023-01-11T01:04:31.830Z,6.83
2023-01-11T01:07:00.249Z,4.80
2023-01-11T01:09:31.678Z,4.40
2023-01-11T01:12:00.392Z,4.63
2023-01-11T01:14:28.820Z,4.93
2023-01-11T01:17:00.804Z,6.00
2023-01-11T01:19:29.450Z,7.50
2023-01-11T01:21:58.328Z,3.23
2023-01-11T01:24:28.291Z,5.20
2023-01-11T01:26:56.528Z,4.70
2023-01-11T01:29:24.616Z,3.77
2023-01-11T01:31:52.859Z,7.33
2023-01-11T01:34:22.191Z,5.20
2023-01-11T01:36:50.548Z,6.43
2023-01-11T01:39:18.504Z,5.43
2023-01-11T01:41:46.673Z,4.60
2023-01-11T01:44:53.916Z,3.80
2023-01-11T01:47:25.333Z,5.13
2023-01-11T01:49:55.986Z,4.10
2023-01-11T01:52:28.933Z,6.67
2023-01-11T01:55:01.483Z,4.03
2023-01-11T01:57:33.144Z,7.67
2023-01-11T02:00:05.005Z,8.63
2023-01-11T02:02:33.107Z,5.20
2023-01-11T02:05:02.366Z,10.90
2023-01-11T02:07:34.017Z,4.93
2023-01-11T02:10:08.243Z,12.70
2023-01-11T02:12:40.319Z,8.43
2023-01-11T02:15:10.795Z,6.90
2023-01-11T02:17:38.908Z,8.40
2023-01-11T02:20:22.627Z,5.30
2023-01-11T02:23:22.117Z,2.53
2023-01-11T02:26:41.569Z,10.30
2023-01-11T02:29:18.722Z,3.47
2023-01-11T02:31:53.037Z,7.83
2023-01-11T02:34:31.666Z,5.37
2023-01-11T02:37:09.685Z,8.77
2023-01-11T02:39:46.960Z,4.10
2023-01-11T02:42:40.200Z,4.70
2023-01-11T02:45:19.555Z,4.87
2023-01-11T02:47:52.360Z,8.47
2023-01-11T02:50:30.282Z,7.63
2023-01-11T02:53:04.624Z,5.00
2023-01-11T02:55:38.067Z,5.23
2023-01-11T02:58:11.383Z,5.63
2023-01-11T03:00:42.196Z,6.00
2023-01-11T03:03:15.672Z,6.50
2023-01-11T03:05:50.958Z,4.40
2023-01-11T03:08:33.037Z,13.93
2023-01-11T03:11:06.862Z,5.77
2023-01-11T03:13:50.993Z,5.83
2023-01-11T03:16:26.431Z,11.03
2023-01-11T03:19:05.985Z,6.47
2023-01-11T03:21:58.500Z,9.33
2023-01-11T03:24:35.312Z,12.20
2023-01-11T03:27:17.643Z,5.20
2023-01-11T03:29:51.557Z,7.10
2023-01-11T03:32:28.102Z,4.13
2023-01-11T03:35:06.755Z,6.33
2023-01-11T03:37:40.329Z,5.60
2023-01-11T03:40:14.991Z,9.07
2023-01-11T03:43:01.684Z,6.40
2023-01-11T03:45:34.522Z,6.43
2023-01-11T03:48:08.054Z,5.13
2023-01-11T03:50:37.401Z,6.50
2023-01-11T03:53:08.276Z,5.83
2023-01-11T03:55:41.867Z,9.43
2023-01-11T03:58:11.323Z,5.17
2023-01-11T04:00:39.604Z,4.37
2023-01-11T04:03:13.103Z,4.53
2023-01-11T04:05:44.227Z,5.87
2023-01-11T04:08:13.016Z,5.27
2023-01-11T04:10:41.592Z,5.83
2023-01-11T04:13:09.915Z,4.50
2023-01-11T04:15:37.812Z,4.60
2023-01-11T04:18:06.571Z,11.67
2023-01-11T04:20:38.416Z,8.20
2023-01-11T04:23:08.213Z,5.80
2023-01-11T04:25:37.632Z,8.93
2023-01-11T04:28:06.157Z,5.90
2023-01-11T04:30:36.133Z,8.00
2023-01-11T04:33:04.420Z,6.53
2023-01-11T04:35:32.611Z,5.50
2023-01-11T04:38:02.768Z,6.10
2023-01-11T04:40:31.254Z,5.73
2023-01-11T04:43:02.735Z,6.23
2023-01-11T04:45:32.710Z,5.43
2023-01-11T04:48:01.356Z,5.30
2023-01-11T04:50:29.890Z,7.47
2023-01-11T04:53:00.597Z,8.77
2023-01-11T04:55:30.172Z,5.80
2023-01-11T04:57:59.140Z,7.00
2023-01-11T05:00:27.916Z,9.33
2023-01-11T05:02:56.834Z,9.17
2023-01-11T05:05:25.218Z,8.47
2023-01-11T05:07:55.030Z,9.00
2023-01-11T05:10:23.663Z,7.67
2023-01-11T05:12:53.673Z,6.50
2023-01-11T05:15:22.105Z,18.47
2023-01-11T05:17:50.947Z,14.67
2023-01-11T05:20:19.285Z,12.73
2023-01-11T05:22:47.945Z,11.20
2023-01-11T05:25:16.186Z,9.00
2023-01-11T05:27:44.803Z,8.03
2023-01-11T05:30:15.637Z,8.33
2023-01-11T05:32:44.297Z,14.23
2023-01-11T05:35:12.656Z,7.70
2023-01-11T05:37:41.352Z,9.73
2023-01-11T05:40:11.324Z,12.70
2023-01-11T05:42:39.520Z,10.30
2023-01-11T05:45:26.315Z,10.40
2023-01-11T05:47:56.689Z,7.50
2023-01-11T05:50:24.973Z,11.40
2023-01-11T05:52:53.962Z,13.43
2023-01-11T05:55:22.322Z,6.90
2023-01-11T05:57:51.700Z,13.33
2023-01-11T06:00:20.840Z,18.00
2023-01-11T06:02:50.530Z,8.63
2023-01-11T06:05:20.194Z,13.13
2023-01-11T06:07:48.589Z,13.50
2023-01-11T06:10:17.740Z,13.17
2023-01-11T06:12:46.053Z,12.40
2023-01-11T06:15:14.328Z,15.10
2023-01-11T06:17:43.337Z,10.03
2023-01-11T06:20:13.165Z,12.43
2023-01-11T06:22:43.456Z,15.43
2023-01-11T06:25:12.125Z,13.47
2023-01-11T06:27:40.890Z,16.00
2023-01-11T06:30:11.065Z,14.03
2023-01-11T06:32:40.023Z,13.67
2023-01-11T06:35:08.856Z,12.20
2023-01-11T06:37:37.629Z,9.90
2023-01-11T06:40:08.391Z,20.20
2023-01-11T06:42:37.962Z,10.17
2023-01-11T06:45:07.987Z,11.13
2023-01-11T06:47:36.740Z,8.80
2023-01-11T06:50:05.519Z,11.93
2023-01-11T06:52:33.970Z,12.10
2023-01-11T06:55:03.103Z,14.33
2023-01-11T06:57:34.186Z,11.10
2023-01-11T07:00:03.711Z,17.30
2023-01-11T07:02:32.893Z,9.13
2023-01-11T07:05:01.239Z,14.30
2023-01-11T07:07:30.038Z,10.90
2023-01-11T07:09:58.108Z,17.13
2023-01-11T07:12:27.145Z,11.67
2023-01-11T07:14:56.825Z,10.33
2023-01-11T07:17:25.604Z,10.00
2023-01-11T07:19:54.108Z,17.13
2023-01-11T07:22:23.184Z,13.77
2023-01-11T07:24:51.990Z,11.93
2023-01-11T07:27:21.517Z,10.67
2023-01-11T07:29:50.233Z,18.10
2023-01-11T07:32:20.717Z,14.37
2023-01-11T07:34:49.720Z,11.87
2023-01-11T07:37:29.008Z,14.90
2023-01-11T07:39:58.027Z,12.20
2023-01-11T07:42:44.335Z,12.47
2023-01-11T07:45:16.125Z,13.53
2023-01-11T07:47:46.302Z,14.53
2023-01-11T07:50:15.003Z,10.23
2023-01-11T07:52:48.655Z,12.40
2023-01-11T07:55:16.996Z,11.37
2023-01-11T07:57:45.774Z,12.40
2023-01-11T08:00:15.496Z,11.10
2023-01-11T08:02:45.638Z,12.13
2023-01-11T08:05:14.329Z,11.03
2023-01-11T08:08:04.687Z,15.30
2023-01-11T08:10:33.231Z,14.03
2023-01-11T08:13:20.098Z,11.47
2023-01-11T08:15:48.830Z,14.83
2023-01-11T08:18:19.908Z,15.33
2023-01-11T08:20:49.331Z,12.53
2023-01-11T08:23:17.971Z,11.60
2023-01-11T08:25:46.447Z,16.80
2023-01-11T08:28:15.980Z,10.67
2023-01-11T08:30:44.944Z,14.90
2023-01-11T08:33:14.285Z,13.20
2023-01-11T08:35:44.089Z,11.93
2023-01-11T08:38:13.569Z,14.77
2023-01-11T08:40:42.891Z,11.23
2023-01-11T08:43:11.576Z,13.37
2023-01-11T08:45:40.992Z,17.80
2023-01-11T08:48:09.793Z,10.67
2023-01-11T08:50:38.749Z,11.90
2023-01-11T08:53:09.575Z,13.20
2023-01-11T08:55:42.218Z,16.43
2023-01-11T08:58:10.539Z,12.80
2023-01-11T09:00:39.482Z,14.80
2023-01-11T09:03:08.429Z,16.40
2023-01-11T09:05:37.409Z,11.80
2023-01-11T09:08:08.087Z,16.23
2023-01-11T09:10:36.982Z,12.73
2023-01-11T09:13:05.648Z,14.30
2023-01-11T09:15:34.669Z,14.00
2023-01-11T09:18:05.384Z,15.73
2023-01-11T09:20:34.319Z,15.17
2023-01-11T09:23:02.831Z,14.80
2023-01-11T09:25:33.383Z,12.63
2023-01-11T09:28:02.065Z,16.13
2023-01-11T09:30:31.369Z,16.57
2023-01-11T09:32:59.818Z,14.87
2023-01-11T09:35:28.725Z,14.60
2023-01-11T09:37:58.531Z,15.17
2023-01-11T09:40:35.955Z,12.17
2023-01-11T09:43:07.325Z,17.50
2023-01-11T09:45:37.336Z,10.57
2023-01-11T09:48:15.552Z,12.40
2023-01-11T09:50:47.925Z,11.47
2023-01-11T09:53:22.634Z,15.77
2023-01-11T09:55:54.311Z,10.00
2023-01-11T09:58:56.579Z,12.90
2023-01-11T10:01:34.720Z,9.77
2023-01-11T10:04:33.371Z,11.00
2023-01-11T10:07:23.639Z,9.07
2023-01-11T10:18:33.919Z,9.93
2023-01-11T10:21:58.321Z,8.57
2023-01-11T10:24:31.313Z,5.77
2023-01-11T10:27:06.417Z,6.67
2023-01-11T10:29:59.643Z,7.23
2023-01-11T10:32:46.423Z,8.57
2023-01-11T10:35:31.935Z,6.70
2023-01-11T10:38:25.705Z,7.40
2023-01-11T10:41:06.952Z,9.90
2023-01-11T10:43:38.926Z,5.83
2023-01-11T10:46:14.392Z,10.47
2023-01-11T10:48:44.495Z,7.73
2023-01-11T10:51:28.767Z,8.80
2023-01-11T10:57:03.600Z,7.47
2023-01-11T10:59:52.656Z,9.40
2023-01-11T11:02:39.171Z,8.33
2023-01-11T11:05:22.785Z,9.00
2023-01-11T11:07:57.605Z,6.23
2023-01-11T11:10:33.491Z,6.20
2023-01-11T11:13:12.930Z,5.50
2023-01-11T11:15:48.389Z,5.57
2023-01-11T11:18:18.173Z,6.00
2023-01-11T11:20:47.019Z,4.90
2023-01-11T11:23:18.724Z,6.63
2023-01-11T11:25:51.433Z,5.07
2023-01-11T11:28:29.504Z,3.90
2023-01-11T11:31:00.563Z,4.87
2023-01-11T11:33:38.049Z,6.90
2023-01-11T11:36:09.078Z,6.70
2023-01-11T11:38:38.782Z,5.77
2023-01-11T11:41:09.830Z,7.53
2023-01-11T11:43:39.113Z,9.00
2023-01-11T11:46:23.540Z,3.63
2023-01-11T11:49:13.548Z,5.70
2023-01-11T11:51:45.012Z,4.37
2023-01-11T11:54:24.253Z,5.17
2023-01-11T11:56:54.095Z,7.63
2023-01-11T11:59:30.269Z,6.13
2023-01-11T12:02:03.636Z,3.47
2023-01-11T12:04:47.594Z,5.00
2023-01-11T12:07:21.651Z,5.23
2023-01-11T12:09:59.489Z,7.40
2023-01-11T12:12:30.499Z,4.60
2023-01-11T12:15:26.814Z,8.40
2023-01-11T12:17:58.909Z,5.50
2023-01-11T12:20:34.871Z,4.50
2023-01-11T12:23:18.076Z,12.57
2023-01-11T12:25:59.294Z,6.03
2023-01-11T12:28:42.267Z,8.43
2023-01-11T12:31:18.411Z,5.00
2023-01-11T12:33:54.843Z,8.37
2023-01-11T12:36:36.378Z,8.10
2023-01-11T12:39:17.257Z,6.93
2023-01-11T12:41:59.749Z,8.07
2023-01-11T12:44:44.851Z,8.13
2023-01-11T12:47:46.881Z,8.47
2023-01-11T12:50:22.191Z,7.23
2023-01-11T12:53:17.264Z,7.90
2023-01-11T12:55:58.490Z,11.63
2023-01-11T12:58:35.949Z,4.73
2023-01-11T13:01:22.444Z,5.27
2023-01-11T13:04:39.564Z,9.20
2023-01-11T13:07:16.232Z,13.17
2023-01-11T13:10:01.719Z,11.40
2023-01-11T13:12:37.639Z,11.60
2023-01-11T13:15:18.085Z,6.07
2023-01-11T13:17:53.037Z,9.20
2023-01-11T13:20:34.192Z,4.90
2023-01-11T13:23:15.418Z,3.23
2023-01-11T13:25:49.038Z,6.83
2023-01-11T13:28:25.784Z,10.73
2023-01-11T13:30:54.871Z,4.00
2023-01-11T13:33:25.730Z,2.90
2023-01-11T13:35:59.424Z,5.80
2023-01-11T13:38:38.270Z,6.20
2023-01-11T13:41:17.001Z,5.53
2023-01-11T13:43:50.372Z,5.40
2023-01-11T13:46:26.097Z,9.93
2023-01-11T13:49:02.568Z,2.10
2023-01-11T13:51:39.558Z,2.00
2023-01-11T13:54:16.882Z,6.83
2023-01-11T13:56:55.756Z,3.77
2023-01-11T13:59:29.740Z,4.50
2023-01-11T14:02:04.021Z,4.40
2023-01-11T14:04:48.161Z,2.93
2023-01-11T14:07:28.821Z,3.87
2023-01-11T14:10:31.382Z,2.27
2023-01-11T14:13:56.321Z,4.57
2023-01-11T14:16:35.652Z,2.93
2023-01-11T14:19:13.459Z,4.60
2023-01-11T14:21:52.166Z,5.60
2023-01-11T14:24:23.480Z,2.57
2023-01-11T14:27:08.384Z,2.27
2023-01-11T14:30:08.413Z,8.97
2023-01-11T14:33:02.851Z,5.00
2023-01-11T14:35:59.786Z,2.93
2023-01-11T14:39:06.479Z,7.87
2023-01-11T14:42:32.058Z,1.87
2023-01-11T14:45:30.855Z,5.90
2023-01-11T14:48:19.713Z,4.33
2023-01-11T14:56:04.803Z,4.77
2023-01-11T14:58:34.354Z,3.53
2023-01-11T15:01:12.221Z,3.63
2023-01-11T15:03:49.093Z,3.60
2023-01-11T15:06:20.610Z,2.03
2023-01-11T15:08:52.261Z,3.60
2023-01-11T15:11:41.825Z,6.20
2023-01-11T15:14:26.785Z,4.40
2023-01-11T15:42:02.016Z,3.30
2023-01-11T15:44:58.833Z,4.23
2023-01-11T15:47:49.634Z,4.60
